sensor_id;sensor_type;location;lat;lon;timestamp;temperature;humidity
5588;DHT22;2816;49.778;9.986;2024-01-30T00:01:08;-0.10;99.90
5588;DHT22;2816;49.778;9.986;2024-01-30T00:03:35;-0.10;99.90
5588;DHT22;2816;49.778;9.986;2024-01-30T00:06:03;-0.10;99.90
5588;DHT22;2816;49.778;9.986;2024-01-30T00:08:32;-0.10;99.90
5588;DHT22;2816;49.778;9.986;2024-01-30T00:10:58;-0.10;99.90
5588;DHT22;2816;49.778;9.986;2024-01-30T00:13:26;-0.10;99.90
5588;DHT22;2816;49.778;9.986;2024-01-30T00:15:53;-0.10;99.90
5588;DHT22;2816;49.778;9.986;2024-01-30T00:18:20;-0.10;99.90
5588;DHT22;2816;49.778;9.986;2024-01-30T00:20:47;-0.10;99.90
5588;DHT22;2816;49.778;9.986;2024-01-30T00:23:14;-0.10;99.90
5588;DHT22;2816;49.778;9.986;2024-01-30T00:25:42;-0.10;99.90
5588;DHT22;2816;49.778;9.986;2024-01-30T00:28:09;-0.20;99.90
5588;DHT22;2816;49.778;9.986;2024-01-30T00:30:35;-0.20;99.90
5588;DHT22;2816;49.778;9.986;2024-01-30T00:33:03;-0.10;99.90
5588;DHT22;2816;49.778;9.986;2024-01-30T00:35:30;-0.10;99.90
5588;DHT22;2816;49.778;9.986;2024-01-30T00:37:58;-0.10;99.90
5588;DHT22;2816;49.778;9.986;2024-01-30T00:40:26;-0.20;99.90
5588;DHT22;2816;49.778;9.986;2024-01-30T00:42:54;-0.20;99.90
5588;DHT22;2816;49.778;9.986;2024-01-30T00:45:21;-0.20;99.90
5588;DHT22;2816;49.778;9.986;2024-01-30T00:47:48;-0.20;99.90
5588;DHT22;2816;49.778;9.986;2024-01-30T00:50:15;-0.30;99.90
5588;DHT22;2816;49.778;9.986;2024-01-30T00:52:42;-0.30;99.90
5588;DHT22;2816;49.778;9.986;2024-01-30T00:55:10;-0.30;99.90
5588;DHT22;2816;49.778;9.986;2024-01-30T00:57:38;-0.30;99.90
5588;DHT22;2816;49.778;9.986;2024-01-30T01:00:08;-0.30;99.90
5588;DHT22;2816;49.778;9.986;2024-01-30T01:02:35;-0.30;99.90
5588;DHT22;2816;49.778;9.986;2024-01-30T01:05:03;-0.30;99.90
5588;DHT22;2816;49.778;9.986;2024-01-30T01:07:30;-0.30;99.90
5588;DHT22;2816;49.778;9.986;2024-01-30T01:09:57;-0.30;99.90
5588;DHT22;2816;49.778;9.986;2024-01-30T01:12:24;-0.40;99.90
5588;DHT22;2816;49.778;9.986;2024-01-30T01:14:51;-0.40;99.90
5588;DHT22;2816;49.778;9.986;2024-01-30T01:17:19;-0.40;99.90
5588;DHT22;2816;49.778;9.986;2024-01-30T01:19:46;-0.40;99.90
5588;DHT22;2816;49.778;9.986;2024-01-30T01:22:13;-0.50;99.90
5588;DHT22;2816;49.778;9.986;2024-01-30T01:24:40;-0.40;99.90
5588;DHT22;2816;49.778;9.986;2024-01-30T01:27:07;-0.50;99.90
5588;DHT22;2816;49.778;9.986;2024-01-30T01:29:33;-0.50;99.90
5588;DHT22;2816;49.778;9.986;2024-01-30T01:32:00;-0.40;99.90
5588;DHT22;2816;49.778;9.986;2024-01-30T01:34:29;-0.50;99.90
5588;DHT22;2816;49.778;9.986;2024-01-30T01:36:55;-0.40;99.90
5588;DHT22;2816;49.778;9.986;2024-01-30T01:39:22;-0.50;99.90
5588;DHT22;2816;49.778;9.986;2024-01-30T01:41:51;-0.50;99.90
5588;DHT22;2816;49.778;9.986;2024-01-30T01:44:18;-0.50;99.90
5588;DHT22;2816;49.778;9.986;2024-01-30T01:46:45;-0.50;99.90
5588;DHT22;2816;49.778;9.986;2024-01-30T01:49:12;-0.50;99.90
5588;DHT22;2816;49.778;9.986;2024-01-30T01:51:42;-0.60;99.90
5588;DHT22;2816;49.778;9.986;2024-01-30T01:54:10;-0.50;99.90
5588;DHT22;2816;49.778;9.986;2024-01-30T01:56:38;-0.50;99.90
5588;DHT22;2816;49.778;9.986;2024-01-30T01:59:06;-0.50;99.90
5588;DHT22;2816;49.778;9.986;2024-01-30T02:01:34;-0.60;99.90
5588;DHT22;2816;49.778;9.986;2024-01-30T02:04:03;-0.60;99.90
5588;DHT22;2816;49.778;9.986;2024-01-30T02:06:30;-0.50;99.90
5588;DHT22;2816;49.778;9.986;2024-01-30T02:08:59;-0.50;99.90
5588;DHT22;2816;49.778;9.986;2024-01-30T02:11:26;-0.50;99.90
5588;DHT22;2816;49.778;9.986;2024-01-30T02:13:53;-0.50;99.90
5588;DHT22;2816;49.778;9.986;2024-01-30T02:16:20;-0.60;99.90
5588;DHT22;2816;49.778;9.986;2024-01-30T02:18:47;-0.50;99.90
5588;DHT22;2816;49.778;9.986;2024-01-30T02:21:16;-0.60;99.90
5588;DHT22;2816;49.778;9.986;2024-01-30T02:23:43;-0.60;99.90
5588;DHT22;2816;49.778;9.986;2024-01-30T02:26:11;-0.60;99.90
5588;DHT22;2816;49.778;9.986;2024-01-30T02:28:38;-0.60;99.90
5588;DHT22;2816;49.778;9.986;2024-01-30T02:31:05;-0.60;99.90
5588;DHT22;2816;49.778;9.986;2024-01-30T02:33:32;-0.60;99.90
5588;DHT22;2816;49.778;9.986;2024-01-30T02:35:59;-0.60;99.90
5588;DHT22;2816;49.778;9.986;2024-01-30T02:38:28;-0.60;99.90
5588;DHT22;2816;49.778;9.986;2024-01-30T02:40:54;-0.60;99.90
5588;DHT22;2816;49.778;9.986;2024-01-30T02:43:22;-0.60;99.90
5588;DHT22;2816;49.778;9.986;2024-01-30T02:45:49;-0.60;99.90
5588;DHT22;2816;49.778;9.986;2024-01-30T02:48:16;-0.70;99.90
5588;DHT22;2816;49.778;9.986;2024-01-30T02:50:43;-0.60;99.90
5588;DHT22;2816;49.778;9.986;2024-01-30T02:53:11;-0.60;99.90
5588;DHT22;2816;49.778;9.986;2024-01-30T02:55:39;-0.60;99.90
5588;DHT22;2816;49.778;9.986;2024-01-30T02:58:06;-0.60;99.90
5588;DHT22;2816;49.778;9.986;2024-01-30T03:00:34;-0.60;99.90
5588;DHT22;2816;49.778;9.986;2024-01-30T03:03:01;-0.70;99.90
5588;DHT22;2816;49.778;9.986;2024-01-30T03:05:28;-0.70;99.90
5588;DHT22;2816;49.778;9.986;2024-01-30T03:07:55;-0.70;99.90
5588;DHT22;2816;49.778;9.986;2024-01-30T03:10:23;-0.70;99.90
5588;DHT22;2816;49.778;9.986;2024-01-30T03:12:51;-0.60;99.90
5588;DHT22;2816;49.778;9.986;2024-01-30T03:15:18;-0.70;99.90
5588;DHT22;2816;49.778;9.986;2024-01-30T03:17:46;-0.70;99.90
5588;DHT22;2816;49.778;9.986;2024-01-30T03:20:13;-0.70;99.90
5588;DHT22;2816;49.778;9.986;2024-01-30T03:22:40;-0.70;99.90
5588;DHT22;2816;49.778;9.986;2024-01-30T03:25:07;-0.70;99.90
5588;DHT22;2816;49.778;9.986;2024-01-30T03:27:34;-0.70;99.90
5588;DHT22;2816;49.778;9.986;2024-01-30T03:30:03;-0.70;99.90
5588;DHT22;2816;49.778;9.986;2024-01-30T03:32:30;-0.70;99.90
5588;DHT22;2816;49.778;9.986;2024-01-30T03:34:56;-0.70;99.90
5588;DHT22;2816;49.778;9.986;2024-01-30T03:37:24;-0.70;99.90
5588;DHT22;2816;49.778;9.986;2024-01-30T03:39:50;-0.80;99.90
5588;DHT22;2816;49.778;9.986;2024-01-30T03:42:18;-0.70;99.90
5588;DHT22;2816;49.778;9.986;2024-01-30T03:44:44;-0.80;99.90
5588;DHT22;2816;49.778;9.986;2024-01-30T03:47:13;-0.80;99.90
5588;DHT22;2816;49.778;9.986;2024-01-30T03:49:40;-0.90;99.90
5588;DHT22;2816;49.778;9.986;2024-01-30T03:52:07;-0.90;99.90
5588;DHT22;2816;49.778;9.986;2024-01-30T03:54:34;-1.00;99.90
5588;DHT22;2816;49.778;9.986;2024-01-30T03:57:01;-1.00;99.90
5588;DHT22;2816;49.778;9.986;2024-01-30T03:59:28;-0.90;99.90
5588;DHT22;2816;49.778;9.986;2024-01-30T04:01:55;-1.00;99.90
5588;DHT22;2816;49.778;9.986;2024-01-30T04:04:23;-0.90;99.90
5588;DHT22;2816;49.778;9.986;2024-01-30T04:06:50;-0.90;99.90
5588;DHT22;2816;49.778;9.986;2024-01-30T04:09:17;-0.90;99.90
5588;DHT22;2816;49.778;9.986;2024-01-30T04:11:44;-1.00;99.90
5588;DHT22;2816;49.778;9.986;2024-01-30T04:14:11;-1.00;99.90
5588;DHT22;2816;49.778;9.986;2024-01-30T04:16:38;-1.00;99.90
5588;DHT22;2816;49.778;9.986;2024-01-30T04:19:05;-1.00;99.90
5588;DHT22;2816;49.778;9.986;2024-01-30T04:21:33;-1.00;99.90
5588;DHT22;2816;49.778;9.986;2024-01-30T04:24:00;-1.00;99.90
5588;DHT22;2816;49.778;9.986;2024-01-30T04:26:26;-1.00;99.90
5588;DHT22;2816;49.778;9.986;2024-01-30T04:28:53;-1.00;99.90
5588;DHT22;2816;49.778;9.986;2024-01-30T04:31:21;-1.00;99.90
5588;DHT22;2816;49.778;9.986;2024-01-30T04:33:47;-1.00;99.90
5588;DHT22;2816;49.778;9.986;2024-01-30T04:36:14;-1.00;99.90
5588;DHT22;2816;49.778;9.986;2024-01-30T04:38:42;-1.10;99.90
5588;DHT22;2816;49.778;9.986;2024-01-30T04:41:09;-1.10;99.90
5588;DHT22;2816;49.778;9.986;2024-01-30T04:43:36;-1.10;99.90
5588;DHT22;2816;49.778;9.986;2024-01-30T04:46:04;-1.10;99.90
5588;DHT22;2816;49.778;9.986;2024-01-30T04:48:31;-1.10;99.90
5588;DHT22;2816;49.778;9.986;2024-01-30T04:50:58;-1.10;99.90
5588;DHT22;2816;49.778;9.986;2024-01-30T04:53:29;-1.10;99.90
5588;DHT22;2816;49.778;9.986;2024-01-30T04:55:57;-1.10;99.90
5588;DHT22;2816;49.778;9.986;2024-01-30T04:58:24;-1.10;99.90
5588;DHT22;2816;49.778;9.986;2024-01-30T05:00:51;-1.10;99.90
5588;DHT22;2816;49.778;9.986;2024-01-30T05:03:18;-1.10;99.90
5588;DHT22;2816;49.778;9.986;2024-01-30T05:05:45;-1.10;99.90
5588;DHT22;2816;49.778;9.986;2024-01-30T05:08:12;-1.10;99.90
5588;DHT22;2816;49.778;9.986;2024-01-30T05:10:39;-1.10;99.90
5588;DHT22;2816;49.778;9.986;2024-01-30T05:13:07;-1.10;99.90
5588;DHT22;2816;49.778;9.986;2024-01-30T05:15:34;-1.20;99.90
5588;DHT22;2816;49.778;9.986;2024-01-30T05:18:01;-1.20;99.90
5588;DHT22;2816;49.778;9.986;2024-01-30T05:20:28;-1.20;99.90
5588;DHT22;2816;49.778;9.986;2024-01-30T05:22:55;-1.20;99.90
5588;DHT22;2816;49.778;9.986;2024-01-30T05:25:22;-1.20;99.90
5588;DHT22;2816;49.778;9.986;2024-01-30T05:27:49;-1.20;99.90
5588;DHT22;2816;49.778;9.986;2024-01-30T05:30:17;-1.20;99.90
5588;DHT22;2816;49.778;9.986;2024-01-30T05:32:44;-1.20;99.90
5588;DHT22;2816;49.778;9.986;2024-01-30T05:35:11;-1.20;99.90
5588;DHT22;2816;49.778;9.986;2024-01-30T05:37:38;-1.20;99.90
5588;DHT22;2816;49.778;9.986;2024-01-30T05:40:06;-1.30;99.90
5588;DHT22;2816;49.778;9.986;2024-01-30T05:42:33;-1.30;99.90
5588;DHT22;2816;49.778;9.986;2024-01-30T05:45:00;-1.30;99.90
5588;DHT22;2816;49.778;9.986;2024-01-30T05:47:28;-1.30;99.90
5588;DHT22;2816;49.778;9.986;2024-01-30T05:49:55;-1.30;99.90
5588;DHT22;2816;49.778;9.986;2024-01-30T05:52:22;-1.30;99.90
5588;DHT22;2816;49.778;9.986;2024-01-30T05:54:49;-1.30;99.90
5588;DHT22;2816;49.778;9.986;2024-01-30T05:57:16;-1.30;99.90
5588;DHT22;2816;49.778;9.986;2024-01-30T05:59:44;-1.30;99.90
5588;DHT22;2816;49.778;9.986;2024-01-30T06:02:13;-1.30;99.90
5588;DHT22;2816;49.778;9.986;2024-01-30T06:04:41;-1.30;99.90
5588;DHT22;2816;49.778;9.986;2024-01-30T06:07:08;-1.30;99.90
5588;DHT22;2816;49.778;9.986;2024-01-30T06:09:35;-1.40;99.90
5588;DHT22;2816;49.778;9.986;2024-01-30T06:12:01;-1.40;99.90
5588;DHT22;2816;49.778;9.986;2024-01-30T06:14:30;-1.40;99.90
5588;DHT22;2816;49.778;9.986;2024-01-30T06:16:58;-1.40;99.90
5588;DHT22;2816;49.778;9.986;2024-01-30T06:19:25;-1.40;99.90
5588;DHT22;2816;49.778;9.986;2024-01-30T06:21:53;-1.40;99.90
5588;DHT22;2816;49.778;9.986;2024-01-30T06:24:20;-1.40;99.90
5588;DHT22;2816;49.778;9.986;2024-01-30T06:26:47;-1.40;99.90
5588;DHT22;2816;49.778;9.986;2024-01-30T06:29:14;-1.30;99.90
5588;DHT22;2816;49.778;9.986;2024-01-30T06:31:42;-1.40;99.90
5588;DHT22;2816;49.778;9.986;2024-01-30T06:34:09;-1.40;99.90
5588;DHT22;2816;49.778;9.986;2024-01-30T06:36:36;-1.40;99.90
5588;DHT22;2816;49.778;9.986;2024-01-30T06:39:05;-1.40;99.90
5588;DHT22;2816;49.778;9.986;2024-01-30T06:41:31;-1.40;99.90
5588;DHT22;2816;49.778;9.986;2024-01-30T06:43:58;-1.40;99.90
5588;DHT22;2816;49.778;9.986;2024-01-30T06:46:25;-1.40;99.90
5588;DHT22;2816;49.778;9.986;2024-01-30T06:48:53;-1.40;99.90
5588;DHT22;2816;49.778;9.986;2024-01-30T06:51:19;-1.40;99.90
5588;DHT22;2816;49.778;9.986;2024-01-30T06:53:46;-1.40;99.90
5588;DHT22;2816;49.778;9.986;2024-01-30T06:56:15;-1.40;99.90
5588;DHT22;2816;49.778;9.986;2024-01-30T06:58:46;-1.40;99.90
5588;DHT22;2816;49.778;9.986;2024-01-30T07:01:13;-1.30;99.90
5588;DHT22;2816;49.778;9.986;2024-01-30T07:03:40;-1.40;99.90
5588;DHT22;2816;49.778;9.986;2024-01-30T07:06:07;-1.40;99.90
5588;DHT22;2816;49.778;9.986;2024-01-30T07:08:34;-1.40;99.90
5588;DHT22;2816;49.778;9.986;2024-01-30T07:11:02;-1.40;99.90
5588;DHT22;2816;49.778;9.986;2024-01-30T07:13:31;-1.50;99.90
5588;DHT22;2816;49.778;9.986;2024-01-30T07:15:58;-1.50;99.90
5588;DHT22;2816;49.778;9.986;2024-01-30T07:18:25;-1.50;99.90
5588;DHT22;2816;49.778;9.986;2024-01-30T07:20:52;-1.40;99.90
5588;DHT22;2816;49.778;9.986;2024-01-30T07:23:18;-1.40;99.90
5588;DHT22;2816;49.778;9.986;2024-01-30T07:25:45;-1.50;99.90
5588;DHT22;2816;49.778;9.986;2024-01-30T07:28:14;-1.50;99.90
5588;DHT22;2816;49.778;9.986;2024-01-30T07:30:43;-1.40;99.90
5588;DHT22;2816;49.778;9.986;2024-01-30T07:33:10;-1.40;99.90
5588;DHT22;2816;49.778;9.986;2024-01-30T07:35:37;-1.40;99.90
5588;DHT22;2816;49.778;9.986;2024-01-30T07:38:04;-1.40;99.90
5588;DHT22;2816;49.778;9.986;2024-01-30T07:40:31;-1.30;99.90
5588;DHT22;2816;49.778;9.986;2024-01-30T07:42:58;-1.30;99.90
5588;DHT22;2816;49.778;9.986;2024-01-30T07:45:26;-1.30;99.90
5588;DHT22;2816;49.778;9.986;2024-01-30T07:47:59;-1.30;99.90
5588;DHT22;2816;49.778;9.986;2024-01-30T07:50:26;-1.30;99.90
5588;DHT22;2816;49.778;9.986;2024-01-30T07:52:53;-1.30;99.90
5588;DHT22;2816;49.778;9.986;2024-01-30T07:55:20;-1.20;99.90
5588;DHT22;2816;49.778;9.986;2024-01-30T07:57:50;-1.20;99.90
5588;DHT22;2816;49.778;9.986;2024-01-30T08:00:17;-1.20;99.90
5588;DHT22;2816;49.778;9.986;2024-01-30T08:02:54;-1.20;99.90
5588;DHT22;2816;49.778;9.986;2024-01-30T08:05:23;-1.20;99.90
5588;DHT22;2816;49.778;9.986;2024-01-30T08:07:49;-1.20;99.90
5588;DHT22;2816;49.778;9.986;2024-01-30T08:10:17;-1.20;99.90
5588;DHT22;2816;49.778;9.986;2024-01-30T08:12:45;-1.20;99.90
5588;DHT22;2816;49.778;9.986;2024-01-30T08:15:12;-1.20;99.90
5588;DHT22;2816;49.778;9.986;2024-01-30T08:17:39;-1.10;99.90
5588;DHT22;2816;49.778;9.986;2024-01-30T08:20:07;-1.10;99.90
5588;DHT22;2816;49.778;9.986;2024-01-30T08:22:38;-1.00;99.90
5588;DHT22;2816;49.778;9.986;2024-01-30T08:25:06;-1.00;99.90
5588;DHT22;2816;49.778;9.986;2024-01-30T08:27:33;-1.00;99.90
5588;DHT22;2816;49.778;9.986;2024-01-30T08:30:01;-0.90;99.90
5588;DHT22;2816;49.778;9.986;2024-01-30T08:32:28;-0.90;99.90
5588;DHT22;2816;49.778;9.986;2024-01-30T08:34:55;-0.90;99.90
5588;DHT22;2816;49.778;9.986;2024-01-30T08:37:22;-0.80;99.90
5588;DHT22;2816;49.778;9.986;2024-01-30T08:39:50;-0.80;99.90
5588;DHT22;2816;49.778;9.986;2024-01-30T08:42:17;-0.80;99.90
5588;DHT22;2816;49.778;9.986;2024-01-30T08:44:48;-0.70;99.90
5588;DHT22;2816;49.778;9.986;2024-01-30T08:47:15;-0.70;99.90
5588;DHT22;2816;49.778;9.986;2024-01-30T08:49:43;-0.60;99.90
5588;DHT22;2816;49.778;9.986;2024-01-30T08:52:10;-0.60;99.90
5588;DHT22;2816;49.778;9.986;2024-01-30T08:54:37;-0.60;99.90
5588;DHT22;2816;49.778;9.986;2024-01-30T08:57:05;-0.60;99.90
5588;DHT22;2816;49.778;9.986;2024-01-30T08:59:32;-0.50;99.90
5588;DHT22;2816;49.778;9.986;2024-01-30T09:01:59;-0.50;99.90
5588;DHT22;2816;49.778;9.986;2024-01-30T09:04:26;-0.40;99.90
5588;DHT22;2816;49.778;9.986;2024-01-30T09:06:53;-0.40;99.90
5588;DHT22;2816;49.778;9.986;2024-01-30T09:09:20;-0.30;99.90
5588;DHT22;2816;49.778;9.986;2024-01-30T09:11:47;-0.30;99.90
5588;DHT22;2816;49.778;9.986;2024-01-30T09:14:15;-0.20;99.90
5588;DHT22;2816;49.778;9.986;2024-01-30T09:16:42;-0.20;99.90
5588;DHT22;2816;49.778;9.986;2024-01-30T09:19:09;-0.20;99.90
5588;DHT22;2816;49.778;9.986;2024-01-30T09:21:36;-0.10;99.90
5588;DHT22;2816;49.778;9.986;2024-01-30T09:24:04;-0.10;99.90
5588;DHT22;2816;49.778;9.986;2024-01-30T09:26:30;-0.10;99.90
5588;DHT22;2816;49.778;9.986;2024-01-30T09:28:57;0.00;99.90
5588;DHT22;2816;49.778;9.986;2024-01-30T09:31:26;0.00;99.90
5588;DHT22;2816;49.778;9.986;2024-01-30T09:33:54;0.00;99.90
5588;DHT22;2816;49.778;9.986;2024-01-30T09:36:21;0.10;99.90
5588;DHT22;2816;49.778;9.986;2024-01-30T09:38:47;0.10;99.90
5588;DHT22;2816;49.778;9.986;2024-01-30T09:41:15;0.20;99.90
5588;DHT22;2816;49.778;9.986;2024-01-30T09:43:47;0.20;99.90
5588;DHT22;2816;49.778;9.986;2024-01-30T09:46:17;0.20;99.90
5588;DHT22;2816;49.778;9.986;2024-01-30T09:48:46;0.20;99.90
5588;DHT22;2816;49.778;9.986;2024-01-30T09:51:15;0.30;99.90
5588;DHT22;2816;49.778;9.986;2024-01-30T09:53:43;0.30;99.90
5588;DHT22;2816;49.778;9.986;2024-01-30T09:56:10;0.30;99.90
5588;DHT22;2816;49.778;9.986;2024-01-30T09:58:39;0.40;99.90
5588;DHT22;2816;49.778;9.986;2024-01-30T10:01:06;0.50;99.90
5588;DHT22;2816;49.778;9.986;2024-01-30T10:03:33;0.60;99.90
5588;DHT22;2816;49.778;9.986;2024-01-30T10:06:01;0.60;99.90
5588;DHT22;2816;49.778;9.986;2024-01-30T10:08:29;0.60;99.90
5588;DHT22;2816;49.778;9.986;2024-01-30T10:10:56;0.60;99.90
5588;DHT22;2816;49.778;9.986;2024-01-30T10:13:23;0.70;99.90
5588;DHT22;2816;49.778;9.986;2024-01-30T10:15:50;0.70;99.90
5588;DHT22;2816;49.778;9.986;2024-01-30T10:18:18;0.80;99.90
5588;DHT22;2816;49.778;9.986;2024-01-30T10:20:45;0.80;99.90
5588;DHT22;2816;49.778;9.986;2024-01-30T10:23:14;0.90;99.90
5588;DHT22;2816;49.778;9.986;2024-01-30T10:25:41;0.90;99.90
5588;DHT22;2816;49.778;9.986;2024-01-30T10:28:08;0.90;99.90
5588;DHT22;2816;49.778;9.986;2024-01-30T10:30:34;1.00;99.90
5588;DHT22;2816;49.778;9.986;2024-01-30T10:33:02;1.00;99.90
5588;DHT22;2816;49.778;9.986;2024-01-30T10:35:29;1.20;99.90
5588;DHT22;2816;49.778;9.986;2024-01-30T10:37:57;1.20;99.90
5588;DHT22;2816;49.778;9.986;2024-01-30T10:40:28;1.40;99.90
5588;DHT22;2816;49.778;9.986;2024-01-30T10:42:56;1.50;99.90
5588;DHT22;2816;49.778;9.986;2024-01-30T10:45:23;1.60;99.90
5588;DHT22;2816;49.778;9.986;2024-01-30T10:47:55;1.70;99.90
5588;DHT22;2816;49.778;9.986;2024-01-30T10:50:24;1.70;99.90
5588;DHT22;2816;49.778;9.986;2024-01-30T10:52:52;1.80;99.90
5588;DHT22;2816;49.778;9.986;2024-01-30T10:55:22;1.90;99.90
5588;DHT22;2816;49.778;9.986;2024-01-30T10:57:50;1.70;99.90
5588;DHT22;2816;49.778;9.986;2024-01-30T11:00:19;1.60;99.90
5588;DHT22;2816;49.778;9.986;2024-01-30T11:02:49;1.60;99.90
5588;DHT22;2816;49.778;9.986;2024-01-30T11:05:24;1.60;99.90
5588;DHT22;2816;49.778;9.986;2024-01-30T11:07:52;1.70;99.90
5588;DHT22;2816;49.778;9.986;2024-01-30T11:10:19;1.90;99.90
5588;DHT22;2816;49.778;9.986;2024-01-30T11:12:46;2.20;99.90
5588;DHT22;2816;49.778;9.986;2024-01-30T11:15:16;2.30;99.90
5588;DHT22;2816;49.778;9.986;2024-01-30T11:17:44;2.40;99.90
5588;DHT22;2816;49.778;9.986;2024-01-30T11:20:11;2.40;99.90
5588;DHT22;2816;49.778;9.986;2024-01-30T11:22:41;2.50;99.90
5588;DHT22;2816;49.778;9.986;2024-01-30T11:25:11;2.30;99.90
5588;DHT22;2816;49.778;9.986;2024-01-30T11:27:39;2.30;99.90
5588;DHT22;2816;49.778;9.986;2024-01-30T11:30:07;2.50;99.90
5588;DHT22;2816;49.778;9.986;2024-01-30T11:32:35;2.80;99.90
5588;DHT22;2816;49.778;9.986;2024-01-30T11:35:05;2.90;99.90
5588;DHT22;2816;49.778;9.986;2024-01-30T11:37:37;3.00;99.90
5588;DHT22;2816;49.778;9.986;2024-01-30T11:40:05;3.00;99.90
5588;DHT22;2816;49.778;9.986;2024-01-30T11:42:32;2.90;99.90
5588;DHT22;2816;49.778;9.986;2024-01-30T11:45:01;2.80;99.90
5588;DHT22;2816;49.778;9.986;2024-01-30T11:47:29;2.70;99.90
5588;DHT22;2816;49.778;9.986;2024-01-30T11:49:57;2.70;99.90
5588;DHT22;2816;49.778;9.986;2024-01-30T11:52:24;2.70;99.90
5588;DHT22;2816;49.778;9.986;2024-01-30T11:54:51;3.10;99.90
5588;DHT22;2816;49.778;9.986;2024-01-30T11:57:17;3.20;99.90
5588;DHT22;2816;49.778;9.986;2024-01-30T11:59:44;3.10;99.90
5588;DHT22;2816;49.778;9.986;2024-01-30T12:02:15;3.10;99.90
5588;DHT22;2816;49.778;9.986;2024-01-30T12:04:43;3.60;99.90
5588;DHT22;2816;49.778;9.986;2024-01-30T12:07:11;3.90;99.90
5588;DHT22;2816;49.778;9.986;2024-01-30T12:09:38;4.20;99.90
5588;DHT22;2816;49.778;9.986;2024-01-30T12:12:07;4.40;99.90
5588;DHT22;2816;49.778;9.986;2024-01-30T12:14:39;4.50;99.90
5588;DHT22;2816;49.778;9.986;2024-01-30T12:17:06;4.60;99.90
5588;DHT22;2816;49.778;9.986;2024-01-30T12:19:35;4.70;99.90
5588;DHT22;2816;49.778;9.986;2024-01-30T12:22:02;4.80;99.90
5588;DHT22;2816;49.778;9.986;2024-01-30T12:24:30;5.00;99.90
5588;DHT22;2816;49.778;9.986;2024-01-30T12:26:57;5.10;99.90
5588;DHT22;2816;49.778;9.986;2024-01-30T12:29:25;5.20;99.90
5588;DHT22;2816;49.778;9.986;2024-01-30T12:31:53;5.20;99.90
5588;DHT22;2816;49.778;9.986;2024-01-30T12:34:20;5.40;99.90
5588;DHT22;2816;49.778;9.986;2024-01-30T12:36:47;5.40;99.90
5588;DHT22;2816;49.778;9.986;2024-01-30T12:39:15;5.40;99.90
5588;DHT22;2816;49.778;9.986;2024-01-30T12:41:43;5.50;99.90
5588;DHT22;2816;49.778;9.986;2024-01-30T12:44:10;5.60;99.90
5588;DHT22;2816;49.778;9.986;2024-01-30T12:46:37;5.80;99.90
5588;DHT22;2816;49.778;9.986;2024-01-30T12:49:04;5.90;99.90
5588;DHT22;2816;49.778;9.986;2024-01-30T12:51:31;6.00;99.90
5588;DHT22;2816;49.778;9.986;2024-01-30T12:54:05;6.20;99.90
5588;DHT22;2816;49.778;9.986;2024-01-30T12:56:32;6.40;99.90
5588;DHT22;2816;49.778;9.986;2024-01-30T12:59:00;6.50;99.90
5588;DHT22;2816;49.778;9.986;2024-01-30T13:01:27;6.70;99.90
5588;DHT22;2816;49.778;9.986;2024-01-30T13:03:54;6.80;99.90
5588;DHT22;2816;49.778;9.986;2024-01-30T13:06:23;7.00;99.90
5588;DHT22;2816;49.778;9.986;2024-01-30T13:08:50;7.10;99.90
5588;DHT22;2816;49.778;9.986;2024-01-30T13:11:18;7.20;99.90
5588;DHT22;2816;49.778;9.986;2024-01-30T13:13:45;7.20;99.90
5588;DHT22;2816;49.778;9.986;2024-01-30T13:16:14;7.20;99.90
5588;DHT22;2816;49.778;9.986;2024-01-30T13:18:41;6.90;99.90
5588;DHT22;2816;49.778;9.986;2024-01-30T13:21:08;6.90;99.90
5588;DHT22;2816;49.778;9.986;2024-01-30T13:23:35;6.90;99.90
5588;DHT22;2816;49.778;9.986;2024-01-30T13:26:02;6.60;99.90
5588;DHT22;2816;49.778;9.986;2024-01-30T13:28:29;6.30;99.90
5588;DHT22;2816;49.778;9.986;2024-01-30T13:30:55;6.10;99.90
5588;DHT22;2816;49.778;9.986;2024-01-30T13:33:24;6.10;99.90
5588;DHT22;2816;49.778;9.986;2024-01-30T13:35:50;6.50;99.90
5588;DHT22;2816;49.778;9.986;2024-01-30T13:38:17;6.50;99.90
5588;DHT22;2816;49.778;9.986;2024-01-30T13:40:44;6.40;99.90
5588;DHT22;2816;49.778;9.986;2024-01-30T13:43:11;6.40;99.90
5588;DHT22;2816;49.778;9.986;2024-01-30T13:45:38;6.20;99.90
5588;DHT22;2816;49.778;9.986;2024-01-30T13:48:07;6.20;99.90
5588;DHT22;2816;49.778;9.986;2024-01-30T13:50:35;6.00;99.90
5588;DHT22;2816;49.778;9.986;2024-01-30T13:53:02;5.80;99.90
5588;DHT22;2816;49.778;9.986;2024-01-30T13:55:29;5.80;99.90
5588;DHT22;2816;49.778;9.986;2024-01-30T13:57:56;5.60;99.90
5588;DHT22;2816;49.778;9.986;2024-01-30T14:00:23;5.60;99.90
5588;DHT22;2816;49.778;9.986;2024-01-30T14:02:51;5.70;99.90
5588;DHT22;2816;49.778;9.986;2024-01-30T14:05:20;5.80;99.90
5588;DHT22;2816;49.778;9.986;2024-01-30T14:07:51;6.10;99.90
5588;DHT22;2816;49.778;9.986;2024-01-30T14:10:18;6.00;99.90
5588;DHT22;2816;49.778;9.986;2024-01-30T14:12:45;5.90;99.90
5588;DHT22;2816;49.778;9.986;2024-01-30T14:15:15;6.10;99.90
5588;DHT22;2816;49.778;9.986;2024-01-30T14:17:43;6.10;99.90
5588;DHT22;2816;49.778;9.986;2024-01-30T14:20:14;6.10;99.90
5588;DHT22;2816;49.778;9.986;2024-01-30T14:22:42;6.20;99.90
5588;DHT22;2816;49.778;9.986;2024-01-30T14:25:10;6.10;99.90
5588;DHT22;2816;49.778;9.986;2024-01-30T14:27:37;6.20;99.90
5588;DHT22;2816;49.778;9.986;2024-01-30T14:30:05;6.30;99.90
5588;DHT22;2816;49.778;9.986;2024-01-30T14:32:33;6.40;99.90
5588;DHT22;2816;49.778;9.986;2024-01-30T14:35:00;6.40;99.90
5588;DHT22;2816;49.778;9.986;2024-01-30T14:37:27;6.40;99.90
5588;DHT22;2816;49.778;9.986;2024-01-30T14:39:55;6.40;99.90
5588;DHT22;2816;49.778;9.986;2024-01-30T14:42:23;6.50;99.90
5588;DHT22;2816;49.778;9.986;2024-01-30T14:44:50;6.60;99.90
5588;DHT22;2816;49.778;9.986;2024-01-30T14:47:17;6.60;99.90
5588;DHT22;2816;49.778;9.986;2024-01-30T14:49:44;6.60;99.90
5588;DHT22;2816;49.778;9.986;2024-01-30T14:52:11;6.60;99.90
5588;DHT22;2816;49.778;9.986;2024-01-30T14:54:39;6.60;99.90
5588;DHT22;2816;49.778;9.986;2024-01-30T14:57:06;6.60;99.90
5588;DHT22;2816;49.778;9.986;2024-01-30T14:59:35;6.50;99.90
5588;DHT22;2816;49.778;9.986;2024-01-30T15:02:03;6.40;99.90
5588;DHT22;2816;49.778;9.986;2024-01-30T15:04:30;6.10;99.90
5588;DHT22;2816;49.778;9.986;2024-01-30T15:06:57;5.90;99.90
5588;DHT22;2816;49.778;9.986;2024-01-30T15:09:23;5.90;99.90
5588;DHT22;2816;49.778;9.986;2024-01-30T15:11:52;6.00;99.90
5588;DHT22;2816;49.778;9.986;2024-01-30T15:14:19;5.90;99.90
5588;DHT22;2816;49.778;9.986;2024-01-30T15:16:47;5.90;99.90
5588;DHT22;2816;49.778;9.986;2024-01-30T15:19:14;5.70;99.90
5588;DHT22;2816;49.778;9.986;2024-01-30T15:21:41;5.70;99.90
5588;DHT22;2816;49.778;9.986;2024-01-30T15:24:08;5.80;99.90
5588;DHT22;2816;49.778;9.986;2024-01-30T15:26:35;5.80;99.90
5588;DHT22;2816;49.778;9.986;2024-01-30T15:29:01;5.80;99.90
5588;DHT22;2816;49.778;9.986;2024-01-30T15:31:29;5.90;99.90
5588;DHT22;2816;49.778;9.986;2024-01-30T15:33:57;5.80;99.90
5588;DHT22;2816;49.778;9.986;2024-01-30T15:36:24;5.80;99.90
5588;DHT22;2816;49.778;9.986;2024-01-30T15:38:51;5.80;99.90
5588;DHT22;2816;49.778;9.986;2024-01-30T15:41:17;5.80;99.90
5588;DHT22;2816;49.778;9.986;2024-01-30T15:43:44;5.80;99.90
5588;DHT22;2816;49.778;9.986;2024-01-30T15:46:11;5.50;99.90
5588;DHT22;2816;49.778;9.986;2024-01-30T15:48:38;5.30;99.90
5588;DHT22;2816;49.778;9.986;2024-01-30T15:51:09;5.30;99.90
5588;DHT22;2816;49.778;9.986;2024-01-30T15:53:36;5.30;99.90
5588;DHT22;2816;49.778;9.986;2024-01-30T15:56:03;5.20;99.90
5588;DHT22;2816;49.778;9.986;2024-01-30T15:58:31;5.10;99.90
5588;DHT22;2816;49.778;9.986;2024-01-30T16:00:57;5.10;99.90
5588;DHT22;2816;49.778;9.986;2024-01-30T16:03:24;5.10;99.90
5588;DHT22;2816;49.778;9.986;2024-01-30T16:05:51;5.00;99.90
5588;DHT22;2816;49.778;9.986;2024-01-30T16:08:19;5.00;99.90